Time;durP1;ratioP1;P1;durP2;ratioP2;P2;SDS_P1;SDS_P2;PMS_P1;PMS_P2;Temp;Humidity;BMP_temperature;BMP_pressure;BME280_temperature;BME280_humidity;BME280_pressure;Samples;Min_cycle;Max_cycle;Signal;HPM_P1;HPM_P2
2023/09/14 00:01:12;;;;;;;5.78;5.38;;;;;;;12.51;100.00;101748.06;6087707;23;20033;-72
2023/09/14 00:03:38;;;;;;;5.45;5.10;;;;;;;12.63;100.00;101767.72;6083739;23;20048;-72
2023/09/14 00:06:05;;;;;;;5.80;5.40;;;;;;;12.48;100.00;101764.81;6087821;23;20529;-72
2023/09/14 00:08:32;;;;;;;5.57;5.28;;;;;;;12.20;100.00;101714.28;6065052;23;20053;-72
2023/09/14 00:11:03;;;;;;;5.38;4.97;;;;;;;12.30;100.00;101739.28;6030484;23;20030;-74
2023/09/14 00:13:29;;;;;;;5.35;5.05;;;;;;;12.00;100.00;101686.19;6086987;23;20807;-72
2023/09/14 00:15:56;;;;;;;5.65;5.10;;;;;;;12.13;100.00;101724.22;6085365;23;20131;-72
2023/09/14 00:18:22;;;;;;;4.95;4.75;;;;;;;12.18;100.00;101738.03;6085207;23;20036;-71
2023/09/14 00:20:52;;;;;;;5.20;4.90;;;;;;;11.93;100.00;101722.44;6086162;23;20022;-72
2023/09/14 00:23:22;;;;;;;5.10;4.80;;;;;;;11.65;100.00;101665.69;6055419;23;20040;-71
2023/09/14 00:25:49;;;;;;;5.53;5.22;;;;;;;12.28;100.00;101773.56;6059335;23;20448;-72
2023/09/14 00:28:17;;;;;;;5.40;5.10;;;;;;;11.95;100.00;101734.59;6061191;23;20085;-72
2023/09/14 00:30:43;;;;;;;4.97;4.70;;;;;;;12.23;100.00;101780.81;6059408;23;20374;-74
2023/09/14 00:33:10;;;;;;;4.93;4.72;;;;;;;12.07;100.00;101754.28;6086499;23;20040;-71
2023/09/14 00:35:36;;;;;;;5.50;5.20;;;;;;;12.06;100.00;101755.19;6083030;23;20018;-72
2023/09/14 00:38:03;;;;;;;5.40;5.10;;;;;;;11.78;100.00;101713.34;6077419;23;20044;-71
2023/09/14 00:40:29;;;;;;;5.60;5.10;;;;;;;11.71;100.00;101714.53;6087354;23;20524;-72
2023/09/14 00:42:56;;;;;;;5.40;5.05;;;;;;;12.06;100.00;101770.97;6093818;23;20534;-72
2023/09/14 00:45:22;;;;;;;5.68;5.35;;;;;;;11.71;100.00;101727.69;6062937;23;20021;-71
2023/09/14 00:47:52;;;;;;;5.40;5.10;;;;;;;12.12;100.00;101783.03;6083937;23;20014;-72
2023/09/14 00:50:20;;;;;;;5.15;4.85;;;;;;;12.10;100.00;101787.50;6060951;23;20428;-72
2023/09/14 00:53:10;;;;;;;5.25;4.95;;;;;;;12.08;100.00;101786.72;6081714;23;20024;-72
2023/09/14 00:55:36;;;;;;;5.13;4.82;;;;;;;11.76;100.00;101734.44;6061662;23;20495;-72
2023/09/14 00:58:03;;;;;;;4.97;4.72;;;;;;;11.33;100.00;101683.59;6089108;23;20486;-71
2023/09/14 01:00:31;;;;;;;5.10;4.80;;;;;;;11.67;100.00;101742.72;6087085;23;20034;-71
2023/09/14 01:03:01;;;;;;;5.45;5.15;;;;;;;11.76;100.00;101766.00;6088068;23;20045;-71
2023/09/14 01:05:30;;;;;;;5.35;5.07;;;;;;;11.95;100.00;101804.78;6072654;23;20031;-73
2023/09/14 01:07:58;;;;;;;5.22;4.93;;;;;;;11.90;100.00;101804.09;6085151;23;20034;-72
2023/09/14 01:10:24;;;;;;;5.55;5.10;;;;;;;11.85;100.00;101799.00;6084496;23;20017;-72
2023/09/14 01:12:51;;;;;;;5.00;4.70;;;;;;;11.81;100.00;101805.28;6085503;23;20170;-72
2023/09/14 01:15:23;;;;;;;5.40;5.10;;;;;;;11.66;100.00;101792.75;6063440;23;20349;-71
2023/09/14 01:18:03;;;;;;;4.93;4.72;;;;;;;11.23;100.00;101721.66;6078746;23;20042;-72
2023/09/14 01:20:51;;;;;;;5.10;4.80;;;;;;;11.71;100.00;101807.44;6083387;23;20025;-71
2023/09/14 01:23:37;;;;;;;5.10;4.85;;;;;;;11.69;100.00;101814.53;6088215;23;20096;-71
2023/09/14 01:26:04;;;;;;;4.85;4.65;;;;;;;11.24;100.00;101741.75;6088749;23;20055;-72
2023/09/14 01:28:30;;;;;;;5.10;4.80;;;;;;;11.24;100.00;101747.00;6054095;23;20350;-71
2023/09/14 01:30:58;;;;;;;5.40;5.10;;;;;;;11.61;100.00;101821.00;6076568;23;20089;-71
2023/09/14 01:33:27;;;;;;;6.82;4.93;;;;;;;11.60;100.00;101829.78;6087199;23;20038;-72
2023/09/14 01:36:13;;;;;;;5.43;5.13;;;;;;;11.62;100.00;101827.97;6080555;23;20018;-73
2023/09/14 01:38:40;;;;;;;5.43;5.13;;;;;;;11.60;100.00;101835.03;6053314;23;20112;-72
2023/09/14 01:41:07;;;;;;;5.60;5.20;;;;;;;11.30;100.00;101785.34;6082926;23;20053;-71
2023/09/14 01:43:34;;;;;;;5.90;5.50;;;;;;;11.07;100.00;101746.81;6078278;23;20045;-72
2023/09/14 01:46:02;;;;;;;5.07;4.70;;;;;;;11.56;100.00;101829.88;6085833;23;20100;-71
2023/09/14 01:48:29;;;;;;;5.15;4.88;;;;;;;11.54;100.00;101836.97;6090610;23;20032;-71
2023/09/14 01:50:55;;;;;;;5.25;4.95;;;;;;;10.96;100.00;101744.56;6076061;23;20031;-71
2023/09/14 01:53:22;;;;;;;4.80;4.60;;;;;;;11.51;100.00;101847.63;6087583;23;20025;-71
2023/09/14 01:55:48;;;;;;;5.22;4.93;;;;;;;11.51;100.00;101842.38;6091205;23;20018;-73
2023/09/14 01:58:15;;;;;;;6.05;5.40;;;;;;;11.03;100.00;101763.59;6095617;23;20212;-73
2023/09/14 02:00:41;;;;;;;4.90;4.60;;;;;;;11.47;100.00;101847.81;6095566;23;20021;-71
2023/09/14 02:03:08;;;;;;;5.57;5.18;;;;;;;11.30;100.00;101819.50;6090698;23;20044;-73
2023/09/14 02:05:35;;;;;;;4.80;4.50;;;;;;;10.71;100.00;101727.09;6058059;23;20031;-71
2023/09/14 02:08:01;;;;;;;5.32;5.03;;;;;;;10.99;100.00;101776.00;6080250;23;20085;-71
2023/09/14 02:10:27;;;;;;;5.18;4.88;;;;;;;11.41;100.00;101842.78;6085010;23;20469;-72
2023/09/14 02:12:54;;;;;;;5.60;5.25;;;;;;;11.42;100.00;101847.97;6086141;23;20006;-73
2023/09/14 02:15:20;;;;;;;5.60;5.30;;;;;;;11.33;100.00;101832.56;6087292;23;20073;-71
2023/09/14 02:17:47;;;;;;;5.40;5.10;;;;;;;10.81;100.00;101758.28;6081295;23;20023;-71
2023/09/14 02:20:14;;;;;;;4.85;4.65;;;;;;;10.87;100.00;101772.03;6085597;23;20089;-71
2023/09/14 02:22:41;;;;;;;5.22;4.95;;;;;;;11.38;100.00;101854.25;6086913;23;20544;-70
2023/09/14 02:25:07;;;;;;;5.15;4.85;;;;;;;11.34;100.00;101853.50;6089023;23;20752;-72
2023/09/14 02:27:34;;;;;;;5.43;5.13;;;;;;;11.33;100.00;101850.94;6081999;23;20097;-72
2023/09/14 02:30:03;;;;;;;6.10;5.05;;;;;;;11.34;100.00;101861.38;6091195;23;20154;-72
2023/09/14 02:32:29;;;;;;;5.03;4.72;;;;;;;11.34;100.00;101857.91;6094658;23;20109;-73
2023/09/14 02:34:56;;;;;;;5.78;5.38;;;;;;;11.20;100.00;101831.28;6061590;23;20048;-72
2023/09/14 02:37:22;;;;;;;5.55;5.25;;;;;;;11.24;100.00;101841.63;6078439;23;20026;-72
2023/09/14 02:39:49;;;;;;;5.50;5.20;;;;;;;11.29;100.00;101854.59;6069134;23;20032;-71
2023/09/14 02:42:15;;;;;;;5.20;4.90;;;;;;;11.34;100.00;101858.75;6090663;23;20041;-72
2023/09/14 02:44:41;;;;;;;5.00;4.80;;;;;;;11.37;100.00;101869.16;6086505;23;20374;-73
2023/09/14 02:47:08;;;;;;;7.68;4.70;;;;;;;11.33;100.00;101870.19;6068318;23;20101;-72
2023/09/14 02:49:34;;;;;;;6.80;5.10;;;;;;;10.74;100.00;101786.50;6087036;23;20480;-72
2023/09/14 02:52:01;;;;;;;5.53;5.22;;;;;;;11.02;100.00;101838.91;6085616;23;20154;-71
2023/09/14 02:54:27;;;;;;;5.50;5.18;;;;;;;10.65;100.00;101769.31;6086284;23;20018;-72
2023/09/14 02:56:54;;;;;;;5.32;5.03;;;;;;;10.75;100.00;101790.88;6082107;23;20123;-73
2023/09/14 02:59:20;;;;;;;5.47;5.18;;;;;;;11.15;100.00;101861.22;6070704;23;20366;-71
2023/09/14 03:01:49;;;;;;;5.32;5.03;;;;;;;11.10;100.00;101857.88;6089380;23;20111;-73
2023/09/14 03:04:16;;;;;;;5.60;5.30;;;;;;;11.02;100.00;101828.41;6077804;23;20382;-72
2023/09/14 03:06:42;;;;;;;5.70;5.18;;;;;;;10.90;100.00;101797.31;6077199;23;20026;-73
2023/09/14 03:09:09;;;;;;;4.97;4.72;;;;;;;11.23;100.00;101852.19;6081639;23;20513;-71
2023/09/14 03:11:35;;;;;;;5.40;5.03;;;;;;;11.56;100.00;101894.78;6089159;23;20497;-70
2023/09/14 03:14:02;;;;;;;5.28;4.88;;;;;;;11.52;100.00;101872.13;6085454;23;20002;-71
2023/09/14 03:16:28;;;;;;;4.97;4.75;;;;;;;11.58;100.00;101874.53;6080157;23;20018;-73
2023/09/14 03:18:55;;;;;;;4.82;4.63;;;;;;;10.82;100.00;101766.09;6080668;23;20299;-71
2023/09/14 03:21:23;;;;;;;5.07;4.82;;;;;;;11.42;100.00;101858.47;6091255;23;20275;-71
2023/09/14 03:23:50;;;;;;;4.72;4.53;;;;;;;10.45;100.00;101701.78;6057322;23;20026;-73
2023/09/14 03:26:17;;;;;;;4.97;4.75;;;;;;;10.98;100.00;101806.66;6091494;23;20028;-71
2023/09/14 03:28:45;;;;;;;5.35;5.05;;;;;;;11.38;100.00;101872.66;6086507;23;20050;-70
2023/09/14 03:31:11;;;;;;;5.18;4.88;;;;;;;11.31;100.00;101872.03;6095769;23;20025;-72
2023/09/14 03:33:38;;;;;;;5.20;4.90;;;;;;;11.25;100.00;101877.50;6089827;23;20026;-71
2023/09/14 03:36:05;;;;;;;5.38;5.07;;;;;;;11.06;100.00;101850.16;6090298;23;20050;-72
2023/09/14 03:38:31;;;;;;;5.40;5.10;;;;;;;11.14;100.00;101879.66;6060921;23;20041;-71
2023/09/14 03:40:58;;;;;;;4.90;4.70;;;;;;;10.97;100.00;101846.97;6091778;23;20020;-72
2023/09/14 03:43:24;;;;;;;5.18;4.88;;;;;;;10.91;100.00;101847.19;6064350;23;20045;-72
2023/09/14 03:45:51;;;;;;;5.20;4.80;;;;;;;11.03;100.00;101869.53;6087685;23;20407;-74
2023/09/14 03:48:17;;;;;;;5.40;5.10;;;;;;;10.99;100.00;101867.94;6059640;23;20029;-72
2023/09/14 03:50:44;;;;;;;5.20;4.82;;;;;;;10.52;100.00;101808.28;6086403;23;20673;-71
2023/09/14 03:53:10;;;;;;;5.25;4.95;;;;;;;10.61;100.00;101822.84;6053075;23;20232;-72
2023/09/14 03:55:37;;;;;;;5.50;5.10;;;;;;;10.76;100.00;101859.09;6099904;23;20041;-71
2023/09/14 03:58:03;;;;;;;5.40;4.90;;;;;;;10.89;100.00;101879.66;6076069;23;20045;-73
2023/09/14 04:00:30;;;;;;;5.13;4.82;;;;;;;10.45;100.00;101806.75;6083655;23;20204;-71
2023/09/14 04:02:56;;;;;;;5.68;5.18;;;;;;;10.83;100.00;101874.63;6090219;23;20030;-72
2023/09/14 04:05:23;;;;;;;4.90;4.70;;;;;;;10.59;100.00;101840.41;6086831;23;20014;-72
2023/09/14 04:07:49;;;;;;;4.80;4.60;;;;;;;10.43;100.00;101818.22;6079440;23;20090;-72
2023/09/14 04:10:16;;;;;;;5.00;4.70;;;;;;;10.62;100.00;101855.19;6075928;23;20553;-71
2023/09/14 04:12:43;;;;;;;5.07;4.78;;;;;;;10.72;100.00;101873.22;6062780;23;20216;-72
2023/09/14 04:15:10;;;;;;;5.28;4.97;;;;;;;10.26;100.00;101803.00;6083087;23;20041;-72
2023/09/14 04:17:36;;;;;;;5.18;4.88;;;;;;;10.57;100.00;101855.34;6071838;23;20070;-73
2023/09/14 04:20:09;;;;;;;5.13;4.82;;;;;;;10.17;100.00;101793.66;6090234;23;20456;-71
2023/09/14 04:22:37;;;;;;;5.47;5.07;;;;;;;10.64;100.00;101869.13;6087367;23;20538;-74
2023/09/14 04:25:06;;;;;;;5.03;4.63;;;;;;;10.60;100.00;101878.00;6081524;23;20093;-71
2023/09/14 04:27:33;;;;;;;5.25;4.95;;;;;;;9.18;100.00;101644.78;6062541;23;20213;-73
2023/09/14 04:29:59;;;;;;;5.10;4.80;;;;;;;10.32;100.00;101848.31;6085824;23;20060;-72
2023/09/14 04:32:26;;;;;;;4.82;4.63;;;;;;;10.10;100.00;101819.25;6054003;23;20018;-71
2023/09/14 04:34:52;;;;;;;5.25;4.95;;;;;;;10.26;100.00;101834.47;6049545;23;20057;-72
2023/09/14 04:37:18;;;;;;;5.30;5.00;;;;;;;10.43;100.00;101870.72;6035584;23;20477;-71
2023/09/14 04:39:45;;;;;;;4.85;4.65;;;;;;;10.36;100.00;101864.78;6078624;23;20609;-74
2023/09/14 04:42:13;;;;;;;4.65;4.45;;;;;;;10.45;100.00;101879.38;6064211;23;20170;-72
2023/09/14 04:44:39;;;;;;;5.55;5.15;;;;;;;9.94;100.00;101794.41;6081559;23;20143;-72
2023/09/14 04:47:06;;;;;;;5.03;4.70;;;;;;;10.29;100.00;101858.00;6086058;23;20510;-72
2023/09/14 04:49:33;;;;;;;5.10;4.80;;;;;;;10.36;100.00;101876.16;6081236;23;20033;-70
2023/09/14 04:51:59;;;;;;;5.07;4.78;;;;;;;9.27;100.00;101690.78;6081863;23;20039;-71
2023/09/14 04:54:26;;;;;;;5.07;4.80;;;;;;;9.94;100.00;101811.00;6087179;23;20082;-70
2023/09/14 04:56:52;;;;;;;4.70;4.50;;;;;;;10.24;100.00;101873.03;6079889;23;20028;-72
2023/09/14 04:59:18;;;;;;;5.15;4.85;;;;;;;10.34;100.00;101895.47;6082347;23;20029;-73
2023/09/14 05:01:45;;;;;;;5.15;4.85;;;;;;;10.03;100.00;101841.31;6057075;23;20053;-71
2023/09/14 05:04:11;;;;;;;5.45;5.10;;;;;;;10.22;100.00;101882.72;6058056;23;20014;-73
2023/09/14 05:06:38;;;;;;;4.53;4.30;;;;;;;9.95;100.00;101831.06;6088624;23;20091;-72
2023/09/14 05:09:04;;;;;;;5.00;4.70;;;;;;;10.09;100.00;101854.25;6077685;23;20021;-72
2023/09/14 05:11:31;;;;;;;5.10;4.80;;;;;;;9.78;100.00;101804.50;6083642;23;20083;-71
2023/09/14 05:13:57;;;;;;;4.85;4.65;;;;;;;10.19;100.00;101881.03;6051502;23;20056;-72
2023/09/14 05:16:24;;;;;;;5.20;4.90;;;;;;;10.32;100.00;101898.16;6090220;23;20057;-73
2023/09/14 05:18:50;;;;;;;4.90;4.68;;;;;;;10.35;100.00;101894.56;6056748;23;20468;-72
2023/09/14 05:21:17;;;;;;;5.18;4.88;;;;;;;10.16;100.00;101863.66;6089352;23;20014;-73
2023/09/14 05:23:44;;;;;;;4.70;4.50;;;;;;;10.24;100.00;101876.50;6091552;23;20026;-70
2023/09/14 05:26:11;;;;;;;4.82;4.53;;;;;;;10.16;100.00;101860.16;6092218;23;20084;-70
2023/09/14 05:28:38;;;;;;;5.30;4.97;;;;;;;10.46;100.00;101902.09;6087292;23;20054;-71
2023/09/14 05:31:04;;;;;;;5.10;4.80;;;;;;;10.49;100.00;101902.84;6096698;23;20209;-70
2023/09/14 05:33:31;;;;;;;4.90;4.60;;;;;;;10.43;100.00;101889.94;6070974;23;20037;-72
2023/09/14 05:35:58;;;;;;;5.32;5.03;;;;;;;10.28;100.00;101866.78;6085454;23;20027;-71
2023/09/14 05:38:24;;;;;;;5.22;4.93;;;;;;;10.63;100.00;101907.66;6092526;23;20036;-72
2023/09/14 05:40:52;;;;;;;5.22;4.93;;;;;;;10.54;100.00;101895.69;6083506;23;20014;-70
2023/09/14 05:43:18;;;;;;;4.97;4.68;;;;;;;10.37;100.00;101856.03;6087720;23;20295;-70
2023/09/14 05:45:46;;;;;;;5.15;4.82;;;;;;;9.67;100.00;101738.47;6090620;23;20236;-71
2023/09/14 05:48:12;;;;;;;5.43;5.13;;;;;;;10.87;100.00;101926.13;6094988;23;20033;-71
2023/09/14 05:50:39;;;;;;;4.80;4.60;;;;;;;10.48;100.00;101853.03;6093975;23;20230;-72
2023/09/14 05:53:05;;;;;;;5.57;5.22;;;;;;;10.73;100.00;101885.44;6093193;23;20095;-71
2023/09/14 05:55:32;;;;;;;5.47;5.07;;;;;;;11.04;100.00;101921.13;6084084;23;20013;-72
2023/09/14 05:57:58;;;;;;;4.70;4.50;;;;;;;11.18;100.00;101929.44;6087022;23;20375;-72
2023/09/14 06:00:25;;;;;;;5.15;4.80;;;;;;;11.17;100.00;101911.09;6051341;23;20544;-73
2023/09/14 06:02:52;;;;;;;5.03;4.75;;;;;;;11.41;100.00;101937.41;6088854;23;20029;-70
2023/09/14 06:05:19;;;;;;;5.40;5.10;;;;;;;11.28;100.00;101895.78;6092983;23;20021;-71
2023/09/14 06:07:52;;;;;;;5.30;5.00;;;;;;;11.29;100.00;101880.88;6084441;23;20093;-72
2023/09/14 06:10:19;;;;;;;6.30;5.80;;;;;;;11.73;100.00;101947.59;6090859;23;20454;-72
2023/09/14 06:12:46;;;;;;;5.57;5.25;;;;;;;11.86;100.00;101942.72;6064181;23;20030;-71
2023/09/14 06:15:12;;;;;;;5.75;5.43;;;;;;;12.03;100.00;101938.63;6057310;23;20018;-72
2023/09/14 06:17:38;;;;;;;5.75;5.35;;;;;;;12.14;100.00;101955.72;6078028;23;20030;-71
2023/09/14 06:20:06;;;;;;;6.13;5.53;;;;;;;12.20;100.00;101962.53;6059753;23;20045;-72
2023/09/14 06:22:34;;;;;;;6.05;5.65;;;;;;;12.26;100.00;101946.50;6090514;23;20025;-71
2023/09/14 06:25:01;;;;;;;6.05;5.55;;;;;;;12.35;100.00;101935.63;6060200;23;20093;-72
2023/09/14 06:27:27;;;;;;;9.52;6.10;;;;;;;12.40;100.00;101932.78;6089849;23;20058;-74
2023/09/14 06:29:54;;;;;;;8.45;7.55;;;;;;;12.47;100.00;101934.28;6086284;23;20026;-72
2023/09/14 06:32:20;;;;;;;16.90;7.03;;;;;;;12.53;100.00;101936.66;6087375;23;20050;-71
2023/09/14 06:35:35;;;;;;;17.30;16.08;;;;;;;12.26;100.00;101858.78;6022265;23;20236;-72
2023/09/14 06:38:04;;;;;;;10.43;6.68;;;;;;;12.51;100.00;101908.69;6067599;23;20030;-71
2023/09/14 06:40:31;;;;;;;9.85;7.13;;;;;;;12.96;100.00;101968.25;6075232;23;20033;-71
2023/09/14 06:42:57;;;;;;;16.05;7.65;;;;;;;12.71;100.00;101934.19;6087086;23;20108;-72
2023/09/14 06:45:24;;;;;;;8.38;7.30;;;;;;;12.93;100.00;101971.03;6087182;23;20018;-72
2023/09/14 06:47:52;;;;;;;7.07;6.40;;;;;;;13.06;100.00;101974.84;6070164;23;20009;-72
2023/09/14 06:50:19;;;;;;;8.15;7.38;;;;;;;12.09;100.00;101880.53;6089880;23;20032;-73
2023/09/14 06:52:47;;;;;;;9.32;7.95;;;;;;;12.64;100.00;101904.59;6084043;23;20034;-73
2023/09/14 06:55:14;;;;;;;12.00;7.25;;;;;;;12.71;100.00;101936.84;6090176;23;20028;-72
2023/09/14 06:57:40;;;;;;;10.32;8.05;;;;;;;12.96;100.00;101957.72;6072818;23;20181;-71
2023/09/14 07:00:14;;;;;;;7.93;7.10;;;;;;;12.99;100.00;101952.34;6078890;23;20142;-71
2023/09/14 07:02:41;;;;;;;10.50;8.80;;;;;;;12.70;100.00;101900.84;6083812;23;20017;-71
2023/09/14 07:05:10;;;;;;;15.77;8.80;;;;;;;12.78;100.00;101907.50;6090571;23;20097;-72
2023/09/14 07:07:37;;;;;;;10.90;7.78;;;;;;;13.10;100.00;101970.31;6085873;23;20029;-71
2023/09/14 07:10:05;;;;;;;8.65;7.50;;;;;;;13.30;100.00;101969.50;6062213;23;20027;-71
2023/09/14 07:12:32;;;;;;;11.43;8.57;;;;;;;13.44;100.00;101969.75;6086705;23;20010;-72
2023/09/14 07:14:58;;;;;;;12.18;8.90;;;;;;;13.53;100.00;101972.00;6078268;23;20049;-72
2023/09/14 07:17:25;;;;;;;12.60;8.85;;;;;;;13.74;100.00;101972.81;6083367;23;20485;-72
2023/09/14 07:19:51;;;;;;;17.35;10.23;;;;;;;14.01;100.00;101980.41;6092767;23;20029;-72
2023/09/14 07:22:19;;;;;;;15.55;9.52;;;;;;;14.12;100.00;101969.34;6090478;23;20263;-74
2023/09/14 07:24:46;;;;;;;18.52;9.80;;;;;;;13.99;100.00;101944.44;6077498;23;20057;-72
2023/09/14 07:27:14;;;;;;;15.52;9.32;;;;;;;13.70;100.00;101899.16;6085329;23;20092;-72
2023/09/14 07:29:40;;;;;;;13.35;9.18;;;;;;;13.70;100.00;101884.16;6081277;23;20029;-72
2023/09/14 07:32:07;;;;;;;14.93;11.13;;;;;;;14.08;100.00;101909.69;6083288;23;20608;-71
2023/09/14 07:34:33;;;;;;;16.23;10.02;;;;;;;14.16;100.00;101900.47;6090136;23;20362;-72
2023/09/14 07:37:00;;;;;;;22.40;11.07;;;;;;;13.96;100.00;101888.22;6090416;23;20653;-71
2023/09/14 07:39:26;;;;;;;19.55;10.45;;;;;;;13.94;100.00;101862.84;6079266;23;20033;-71
2023/09/14 07:41:56;;;;;;;16.58;10.98;;;;;;;14.18;100.00;101907.47;6069844;23;20566;-72
2023/09/14 07:44:23;;;;;;;12.73;10.18;;;;;;;14.23;100.00;101919.53;6060200;23;20084;-71
2023/09/14 07:46:49;;;;;;;15.82;11.00;;;;;;;14.26;100.00;101898.25;6091535;23;20056;-70
2023/09/14 07:49:16;;;;;;;12.77;10.18;;;;;;;14.45;100.00;101922.00;6078936;23;20013;-71
2023/09/14 07:51:43;;;;;;;21.85;12.95;;;;;;;14.26;100.00;101876.28;6080876;23;20029;-71
2023/09/14 07:54:09;;;;;;;15.63;10.57;;;;;;;14.56;100.00;101918.84;6084187;23;20029;-71
2023/09/14 07:56:36;;;;;;;15.02;10.75;;;;;;;14.40;100.00;101889.66;6061586;23;20029;-73
2023/09/14 07:59:02;;;;;;;14.43;10.13;;;;;;;14.49;100.00;101913.00;6083871;23;20019;-70
2023/09/14 08:01:29;;;;;;;16.92;10.40;;;;;;;13.88;100.00;101781.34;6081164;23;20358;-70
2023/09/14 08:03:55;;;;;;;17.58;10.27;;;;;;;14.62;100.00;101889.47;6080049;23;20030;-74
2023/09/14 08:06:24;;;;;;;18.25;9.98;;;;;;;14.27;100.00;101841.88;6093309;23;20021;-71
2023/09/14 08:08:51;;;;;;;13.32;10.77;;;;;;;14.81;100.00;101907.03;6083655;23;20100;-71
2023/09/14 08:11:17;;;;;;;24.02;11.98;;;;;;;14.52;100.00;101833.56;6079469;23;20026;-71
2023/09/14 08:13:44;;;;;;;22.75;11.27;;;;;;;14.51;100.00;101826.59;6077493;23;20609;-71
2023/09/14 08:16:10;;;;;;;18.65;10.13;;;;;;;14.50;100.00;101830.16;6088306;23;20481;-71
2023/09/14 08:18:37;;;;;;;24.75;12.00;;;;;;;14.78;100.00;101855.22;6090973;23;20028;-72
2023/09/14 08:21:03;;;;;;;18.02;11.13;;;;;;;14.96;100.00;101863.97;6084916;23;20030;-73
2023/09/14 08:23:30;;;;;;;21.17;12.00;;;;;;;15.12;100.00;101864.03;6082082;23;20392;-71
2023/09/14 08:25:56;;;;;;;18.83;11.45;;;;;;;14.84;100.00;101804.69;6078834;23;20450;-73
2023/09/14 08:28:23;;;;;;;22.52;13.75;;;;;;;15.21;100.00;101849.47;6086940;23;20219;-71
2023/09/14 08:30:49;;;;;;;25.48;13.43;;;;;;;15.41;100.00;101858.97;6088488;23;20102;-72
2023/09/14 08:33:16;;;;;;;24.48;12.32;;;;;;;15.33;100.00;101825.00;6084279;23;20030;-72
2023/09/14 08:35:46;;;;;;;26.20;13.05;;;;;;;15.31;100.00;101805.72;6041913;23;20076;-72
2023/09/14 08:38:12;;;;;;;20.05;12.27;;;;;;;15.63;100.00;101837.50;6081889;23;20150;-72
2023/09/14 08:40:41;;;;;;;23.23;11.98;;;;;;;15.67;100.00;101831.09;6077804;23;20100;-71
2023/09/14 08:43:12;;;;;;;24.58;12.45;;;;;;;15.78;100.00;101815.50;6079990;23;20034;-73
2023/09/14 08:45:39;;;;;;;20.90;12.57;;;;;;;16.06;100.00;101817.44;6079541;23;20096;-73
2023/09/14 08:48:06;;;;;;;21.92;13.32;;;;;;;16.16;100.00;101796.56;6060480;23;20030;-72
2023/09/14 08:50:34;;;;;;;23.55;13.93;;;;;;;15.94;100.00;101739.56;6084654;23;20018;-73
2023/09/14 08:53:01;;;;;;;20.17;12.85;;;;;;;16.21;100.00;101783.91;6081979;23;20106;-73
2023/09/14 08:55:35;;;;;;;28.48;14.00;;;;;;;16.05;100.00;101753.97;6077372;23;20022;-75
2023/09/14 08:58:02;;;;;;;27.92;13.82;;;;;;;15.86;100.00;101739.16;6080492;23;20559;-72
2023/09/14 09:00:30;;;;;;;18.98;12.10;;;;;;;15.94;100.00;101760.75;6080318;23;20032;-74
2023/09/14 09:02:57;;;;;;;19.83;12.70;;;;;;;15.94;100.00;101741.34;6075103;23;20687;-73
2023/09/14 09:05:25;;;;;;;18.40;12.77;;;;;;;16.07;100.00;101722.94;6075554;23;20424;-73
2023/09/14 09:07:54;;;;;;;15.55;10.98;;;;;;;16.59;100.00;101764.88;6086948;23;20320;-73
2023/09/14 09:10:23;;;;;;;19.05;11.27;;;;;;;15.81;100.00;101561.22;6083288;23;20262;-72
2023/09/14 09:12:51;;;;;;;23.10;14.50;;;;;;;17.01;100.00;101704.88;6080745;23;20049;-73
2023/09/14 09:15:18;;;;;;;21.15;13.45;;;;;;;17.08;100.00;101671.72;6044743;23;20302;-72
2023/09/14 09:17:44;;;;;;;19.80;13.85;;;;;;;17.43;100.00;101687.13;6084353;23;20084;-72
2023/09/14 09:20:14;;;;;;;26.70;14.98;;;;;;;17.30;100.00;101601.34;6063621;23;20499;-72
2023/09/14 09:22:43;;;;;;;21.80;13.00;;;;;;;17.48;100.00;101613.38;6090677;23;20026;-72
2023/09/14 09:25:11;;;;;;;23.95;13.07;;;;;;;17.81;100.00;101603.25;6076428;23;20659;-74
2023/09/14 09:27:39;;;;;;;25.88;13.30;;;;;;;16.80;100.00;101409.25;6059346;23;20350;-74
2023/09/14 09:30:08;;;;;;;20.95;13.05;;;;;;;18.05;100.00;101550.28;6083902;23;20261;-72
2023/09/14 09:32:39;;;;;;;20.33;12.40;;;;;;;18.50;100.00;101570.09;6079444;23;20050;-72
2023/09/14 09:35:20;;;;;;;19.65;13.23;;;;;;;18.03;98.15;101443.28;6053053;23;20032;-73
2023/09/14 09:37:47;;;;;;;25.08;14.48;;;;;;;19.08;97.96;101565.00;6087279;23;20034;-73
2023/09/14 09:40:26;;;;;;;25.48;12.98;;;;;;;19.39;94.91;101537.91;6080700;23;20291;-72
2023/09/14 09:42:53;;;;;;;22.90;13.65;;;;;;;19.61;92.40;101505.16;6081935;23;20022;-72
2023/09/14 09:45:25;;;;;;;18.48;13.30;;;;;;;19.40;89.60;101401.16;6082038;23;20105;-73
2023/09/14 09:47:53;;;;;;;20.60;12.70;;;;;;;19.80;88.25;101385.56;6056598;23;20230;-73
2023/09/14 09:50:21;;;;;;;22.33;12.35;;;;;;;20.20;85.49;101386.81;6055081;23;20050;-73
2023/09/14 09:52:49;;;;;;;21.40;13.52;;;;;;;20.25;82.50;101318.00;6086258;23;20329;-73
2023/09/14 09:55:24;;;;;;;18.88;12.70;;;;;;;19.93;82.59;101293.03;6082614;23;20049;-73
2023/09/14 09:57:53;;;;;;;18.85;11.88;;;;;;;20.36;85.06;101389.91;6084323;23;20010;-72
2023/09/14 10:00:21;;;;;;;18.35;12.77;;;;;;;20.61;83.35;101391.41;6083884;23;20029;-73
2023/09/14 10:02:53;;;;;;;19.10;12.68;;;;;;;19.83;79.92;101211.34;6083534;23;20049;-73
2023/09/14 10:05:30;;;;;;;18.48;12.43;;;;;;;19.47;81.58;101264.78;6085603;23;20368;-72
2023/09/14 10:07:59;;;;;;;22.33;13.45;;;;;;;19.20;82.87;101282.97;6085007;23;20051;-73
2023/09/14 10:10:27;;;;;;;27.88;14.15;;;;;;;18.76;83.63;101273.97;6089193;23;20033;-74
2023/09/14 10:12:55;;;;;;;21.33;12.82;;;;;;;19.29;83.57;101343.47;6084143;23;20227;-72
2023/09/14 10:15:25;;;;;;;17.65;12.65;;;;;;;19.33;84.47;101380.34;6060440;23;20049;-73
2023/09/14 10:17:54;;;;;;;20.90;12.20;;;;;;;19.90;86.03;101454.94;6091731;23;20030;-73
2023/09/14 10:20:21;;;;;;;17.77;11.80;;;;;;;20.32;83.38;101386.63;6090572;23;20349;-72
2023/09/14 10:22:48;;;;;;;16.45;11.15;;;;;;;21.09;81.80;101420.25;6079486;23;20046;-73
2023/09/14 10:25:16;;;;;;;16.60;11.82;;;;;;;21.14;78.88;101330.94;6081010;23;20030;-73
2023/09/14 10:27:43;;;;;;;16.70;10.95;;;;;;;21.48;76.57;101324.34;6087547;23;20033;-72
2023/09/14 10:30:18;;;;;;;16.83;9.38;;;;;;;21.15;70.46;101097.72;6086094;23;20375;-73
2023/09/14 10:32:49;;;;;;;16.88;11.00;;;;;;;21.12;71.73;101178.94;6080662;23;20100;-72
2023/09/14 10:35:17;;;;;;;16.93;11.00;;;;;;;20.57;74.46;101239.75;6058377;23;20044;-73
2023/09/14 10:37:45;;;;;;;17.17;11.85;;;;;;;19.53;80.26;101325.53;6088013;23;20475;-73
2023/09/14 10:40:13;;;;;;;15.40;11.57;;;;;;;20.09;80.11;101367.22;6076729;23;20025;-74
2023/09/14 10:42:41;;;;;;;17.15;11.07;;;;;;;19.97;77.21;101298.13;6081351;23;20184;-72
2023/09/14 10:45:10;;;;;;;16.63;11.38;;;;;;;19.70;77.98;101297.56;6090183;23;20188;-74
2023/09/14 10:47:40;;;;;;;18.42;12.20;;;;;;;18.64;81.55;101278.44;6082460;23;20089;-74
2023/09/14 10:50:08;;;;;;;14.38;10.60;;;;;;;19.01;83.64;101411.28;6075323;23;20025;-73
2023/09/14 10:52:37;;;;;;;11.65;10.45;;;;;;;18.58;83.86;101382.56;6089424;23;20182;-73
2023/09/14 10:55:08;;;;;;;14.38;11.02;;;;;;;18.67;85.37;101466.97;6090783;23;20052;-74
2023/09/14 10:57:39;;;;;;;13.32;10.02;;;;;;;17.83;83.79;101264.13;6061352;23;20010;-73
2023/09/14 11:00:06;;;;;;;14.50;10.05;;;;;;;18.04;82.35;101277.63;6092820;23;20032;-74
2023/09/14 11:02:50;;;;;;;13.25;10.70;;;;;;;18.61;84.19;101436.38;6087496;23;20472;-72
2023/09/14 11:05:19;;;;;;;19.90;12.30;;;;;;;18.24;87.80;101462.13;6083896;23;20027;-74
2023/09/14 11:07:55;;;;;;;12.57;10.60;;;;;;;18.46;87.32;101480.03;6059072;23;20162;-73
2023/09/14 11:10:23;;;;;;;17.10;11.68;;;;;;;18.05;85.53;101370.50;6057528;23;20026;-74
2023/09/14 11:12:51;;;;;;;14.23;9.95;;;;;;;18.45;85.13;101414.56;6084486;23;20079;-72
2023/09/14 11:15:21;;;;;;;17.60;11.80;;;;;;;18.35;85.28;101419.69;6085942;23;20033;-74